Time;durP1;ratioP1;P1;durP2;ratioP2;P2;SDS_P1;SDS_P2;PMS_P1;PMS_P2;Temp;Humidity;BMP_temperature;BMP_pressure;BME280_temperature;BME280_humidity;BME280_pressure;Samples;Min_cycle;Max_cycle;Signal;HPM_P1;HPM_P2
2023/07/08 00:00:23;;;;;;;5.63;4.23;;;12.50;1.00;;;;;;8350415;28;20270;-64
2023/07/08 00:04:25;;;;;;;4.37;3.93;;;12.40;1.00;;;;;;8365120;28;20242;-63
2023/07/08 00:08:26;;;;;;;8.40;4.07;;;12.30;1.00;;;;;;8344792;28;20246;-64
2023/07/08 00:12:27;;;;;;;4.67;4.20;;;12.30;1.00;;;;;;8346592;28;20185;-63
2023/07/08 00:16:28;;;;;;;7.73;4.60;;;12.30;1.00;;;;;;8363187;28;20272;-64
2023/07/08 00:20:46;;;;;;;8.27;4.57;;;12.20;1.00;;;;;;8367405;28;20285;-64
2023/07/08 00:24:47;;;;;;;5.67;4.47;;;12.20;1.00;;;;;;8347213;28;20189;-64
2023/07/08 00:28:48;;;;;;;7.73;4.37;;;12.10;1.00;;;;;;8354700;28;20268;-65
2023/07/08 00:32:55;;;;;;;5.70;4.63;;;12.00;52.30;;;;;;8352148;28;20273;-66
2023/07/08 00:36:56;;;;;;;5.67;4.50;;;12.10;92.60;;;;;;8365184;28;20197;-63
2023/07/08 00:41:03;;;;;;;5.63;4.23;;;12.10;99.50;;;;;;8365147;28;20285;-64
2023/07/08 00:45:40;;;;;;;6.10;5.00;;;12.00;99.90;;;;;;8369400;28;20190;-63
2023/07/08 00:49:53;;;;;;;5.67;4.30;;;12.00;99.90;;;;;;8349557;28;20205;-63
2023/07/08 00:53:54;;;;;;;7.77;5.13;;;11.90;99.90;;;;;;8353782;28;20192;-62
2023/07/08 00:57:55;;;;;;;6.13;4.40;;;11.90;99.90;;;;;;8349602;28;20216;-63
2023/07/08 01:02:00;;;;;;;5.53;4.20;;;11.90;99.90;;;;;;8348008;28;20202;-63
2023/07/08 01:06:02;;;;;;;4.57;4.07;;;11.80;99.90;;;;;;8367040;28;20205;-63
2023/07/08 01:10:07;;;;;;;5.27;4.60;;;11.70;99.90;;;;;;8350649;28;20182;-63
2023/07/08 01:14:14;;;;;;;4.83;4.27;;;11.70;99.90;;;;;;8347510;28;20235;-63
2023/07/08 01:18:17;;;;;;;5.90;4.30;;;11.60;99.90;;;;;;8365174;28;20184;-63
2023/07/08 01:22:18;;;;;;;6.60;4.53;;;11.60;99.90;;;;;;8349182;28;20272;-63
2023/07/08 01:26:21;;;;;;;6.53;4.40;;;11.50;99.90;;;;;;8345318;28;20204;-63
2023/07/08 01:30:22;;;;;;;5.30;4.70;;;11.40;99.90;;;;;;8362664;28;20192;-63
2023/07/08 01:34:24;;;;;;;5.30;4.60;;;11.40;99.90;;;;;;8353797;28;20189;-62
2023/07/08 01:38:27;;;;;;;5.53;5.03;;;11.30;99.90;;;;;;8365612;28;20178;-63
2023/07/08 01:42:28;;;;;;;5.03;4.40;;;11.30;99.90;;;;;;8351902;28;20216;-63
2023/07/08 01:46:29;;;;;;;5.97;4.63;;;11.30;99.90;;;;;;8348226;28;20178;-63
2023/07/08 01:50:32;;;;;;;5.30;4.60;;;11.20;99.90;;;;;;8361190;28;20292;-63
2023/07/08 01:54:32;;;;;;;6.13;4.30;;;11.20;99.90;;;;;;8343906;28;20205;-63
2023/07/08 01:58:34;;;;;;;4.63;4.13;;;11.10;99.90;;;;;;8362550;28;20206;-63
2023/07/08 02:02:35;;;;;;;6.33;4.53;;;11.00;99.90;;;;;;8363494;28;20212;-63
2023/07/08 02:06:35;;;;;;;5.63;4.67;;;10.90;1.00;;;;;;8361858;28;20189;-63
2023/07/08 02:10:40;;;;;;;4.40;3.97;;;10.90;2.20;;;;;;8364784;28;20201;-63
2023/07/08 02:14:40;;;;;;;6.77;4.80;;;10.80;32.30;;;;;;8366487;28;20213;-64
2023/07/08 02:18:42;;;;;;;7.63;5.47;;;10.80;99.90;;;;;;8345873;28;20189;-64
2023/07/08 02:22:43;;;;;;;8.13;4.87;;;10.80;99.90;;;;;;8364254;28;20233;-64
2023/07/08 02:26:47;;;;;;;6.80;4.90;;;10.70;99.90;;;;;;8347176;28;20193;-64
2023/07/08 02:30:50;;;;;;;5.27;4.73;;;10.60;99.90;;;;;;8364984;28;20193;-64
2023/07/08 02:34:52;;;;;;;4.80;4.37;;;10.50;99.90;;;;;;8349668;28;20205;-64
2023/07/08 02:38:52;;;;;;;4.87;4.37;;;10.50;99.90;;;;;;8353688;28;20193;-64
2023/07/08 02:42:53;;;;;;;5.03;4.53;;;10.40;99.90;;;;;;8343529;28;20212;-64
2023/07/08 02:46:54;;;;;;;5.37;4.70;;;10.40;99.90;;;;;;8347163;28;20218;-64
2023/07/08 02:51:03;;;;;;;5.93;4.43;;;10.30;1.00;;;;;;8348953;28;20268;-64
2023/07/08 02:55:08;;;;;;;5.27;4.60;;;10.30;1.00;;;;;;8346809;28;20185;-64
2023/07/08 02:59:09;;;;;;;5.80;4.90;;;10.30;5.00;;;;;;8350011;28;20207;-64
2023/07/08 03:03:10;;;;;;;7.70;5.40;;;10.30;99.90;;;;;;8362383;28;20263;-64
2023/07/08 03:07:11;;;;;;;4.90;4.40;;;10.40;99.90;;;;;;8362520;28;20188;-67
2023/07/08 03:11:12;;;;;;;5.73;5.10;;;10.40;99.90;;;;;;8362677;28;20193;-66
2023/07/08 03:15:13;;;;;;;6.77;5.20;;;10.50;1.00;;;;;;8352682;28;20193;-67
2023/07/08 03:19:15;;;;;;;6.13;5.50;;;10.60;1.00;;;;;;8352212;28;20213;-66
2023/07/08 03:23:16;;;;;;;6.73;6.00;;;11.20;99.90;;;;;;8350507;28;20248;-67
2023/07/08 03:27:17;;;;;;;6.40;5.20;;;12.20;1.00;;;;;;8353511;28;20189;-67
2023/07/08 03:31:17;;;;;;;6.20;5.30;;;13.20;99.90;;;;;;8364803;28;20189;-68
2023/07/08 03:35:18;;;;;;;5.10;4.60;;;14.00;1.00;;;;;;8359020;28;20189;-67
2023/07/08 03:39:22;;;;;;;4.10;3.70;;;14.90;99.90;;;;;;8363936;28;20203;-68
2023/07/08 03:43:22;;;;;;;7.40;4.20;;;15.90;99.90;;;;;;8361741;28;20201;-66
2023/07/08 03:47:23;;;;;;;5.23;3.70;;;16.70;36.60;;;;;;8368220;28;20189;-67
2023/07/08 03:51:28;;;;;;;4.30;3.70;;;17.50;1.00;;;;;;8351234;28;20328;-67
2023/07/08 03:55:29;;;;;;;5.27;3.70;;;18.20;1.00;;;;;;8353889;28;20191;-67
2023/07/08 03:59:30;;;;;;;5.83;3.80;;;18.90;1.00;;;;;;8353061;28;20197;-66
2023/07/08 04:03:31;;;;;;;7.53;4.60;;;19.60;1.00;;;;;;8351324;28;20216;-66
2023/07/08 04:07:33;;;;;;;6.23;4.53;;;20.00;1.00;;;;;;8367733;28;20181;-66
2023/07/08 04:11:35;;;;;;;7.23;4.20;;;20.20;1.00;;;;;;8366056;28;20189;-67
2023/07/08 04:15:36;;;;;;;5.13;4.00;;;20.60;1.00;;;;;;8365457;28;20185;-67
2023/07/08 04:19:39;;;;;;;5.47;3.70;;;21.10;1.00;;;;;;8344934;28;20247;-66
2023/07/08 04:23:39;;;;;;;5.83;3.80;;;21.60;1.00;;;;;;8348865;28;20189;-65
2023/07/08 04:27:41;;;;;;;4.13;3.43;;;22.00;1.00;;;;;;8348479;28;20190;-67
2023/07/08 04:31:42;;;;;;;4.80;3.83;;;22.50;1.00;;;;;;8348865;28;20205;-66
2023/07/08 04:35:44;;;;;;;6.47;4.50;;;23.00;1.00;;;;;;8365768;28;20198;-67
2023/07/08 04:39:45;;;;;;;5.90;4.17;;;22.70;1.00;;;;;;8348829;28;20200;-66
2023/07/08 04:43:47;;;;;;;6.00;4.00;;;22.30;1.00;;;;;;8354326;28;20177;-65
2023/07/08 04:47:52;;;;;;;4.70;4.20;;;22.10;1.00;;;;;;8348415;28;20214;-65
2023/07/08 04:51:56;;;;;;;5.20;4.33;;;22.40;1.00;;;;;;8366265;28;20239;-65
2023/07/08 04:55:57;;;;;;;8.57;5.40;;;22.30;1.00;;;;;;8355458;28;20185;-65
2023/07/08 04:59:58;;;;;;;6.73;5.77;;;22.30;1.00;;;;;;8347722;28;20267;-66
2023/07/08 05:03:59;;;;;;;11.87;5.73;;;22.10;1.00;;;;;;8366137;28;20205;-65
2023/07/08 05:08:00;;;;;;;10.83;6.77;;;22.20;1.00;;;;;;8363499;28;20273;-65
2023/07/08 05:12:01;;;;;;;15.57;11.33;;;22.20;1.00;;;;;;8349563;28;20201;-65
2023/07/08 05:16:02;;;;;;;9.90;6.83;;;21.80;1.00;;;;;;8363824;28;20228;-65
2023/07/08 05:20:04;;;;;;;8.60;6.77;;;21.30;1.00;;;;;;8364924;28;20316;-66
2023/07/08 05:24:06;;;;;;;6.97;5.73;;;20.80;1.00;;;;;;8344772;28;20185;-66
2023/07/08 05:28:07;;;;;;;7.73;5.60;;;20.50;1.00;;;;;;8365299;28;20186;-65
2023/07/08 05:32:10;;;;;;;9.80;6.13;;;20.20;1.00;;;;;;8354238;28;20267;-65
2023/07/08 05:36:11;;;;;;;6.97;6.27;;;20.00;1.00;;;;;;8363329;28;20197;-66
2023/07/08 05:40:12;;;;;;;8.47;6.27;;;20.00;1.00;;;;;;8350042;28;20221;-65
2023/07/08 05:44:13;;;;;;;8.07;5.73;;;19.90;1.00;;;;;;8362897;28;20185;-65
2023/07/08 05:48:14;;;;;;;6.43;5.37;;;20.10;1.00;;;;;;8349655;28;20196;-66
2023/07/08 05:52:15;;;;;;;8.80;5.80;;;20.20;1.00;;;;;;8363356;28;20189;-65
2023/07/08 05:56:16;;;;;;;11.57;6.50;;;20.40;1.00;;;;;;8365360;28;20178;-65
2023/07/08 06:00:20;;;;;;;6.70;5.50;;;20.70;1.00;;;;;;8362002;28;20217;-66
2023/07/08 06:04:21;;;;;;;7.70;5.70;;;20.80;1.00;;;;;;8353950;28;20212;-65
2023/07/08 06:08:26;;;;;;;13.40;5.87;;;20.90;1.00;;;;;;8346908;28;20372;-64
2023/07/08 06:12:27;;;;;;;8.13;6.03;;;21.00;1.00;;;;;;8344536;28;20240;-64
2023/07/08 06:16:29;;;;;;;8.67;5.63;;;21.20;1.00;;;;;;8364535;28;20186;-66
2023/07/08 06:20:30;;;;;;;5.93;5.03;;;21.40;1.00;;;;;;8349287;28;20220;-65
2023/07/08 06:24:31;;;;;;;7.60;5.30;;;21.70;1.00;;;;;;8344065;28;20193;-65
2023/07/08 06:28:35;;;;;;;5.83;5.17;;;21.90;1.00;;;;;;8347359;28;20201;-66
2023/07/08 06:32:36;;;;;;;5.53;4.50;;;22.10;1.00;;;;;;8364159;28;20190;-66
2023/07/08 06:36:37;;;;;;;6.10;4.60;;;22.40;1.00;;;;;;8363368;28;20193;-65
2023/07/08 06:40:38;;;;;;;4.07;3.50;;;22.60;1.00;;;;;;8342283;28;20304;-65
2023/07/08 06:44:39;;;;;;;5.70;3.37;;;22.90;1.00;;;;;;8360502;28;20181;-67
2023/07/08 06:48:39;;;;;;;4.40;3.07;;;23.10;1.00;;;;;;8366520;28;20220;-66
2023/07/08 06:52:41;;;;;;;6.00;3.60;;;23.40;1.00;;;;;;8361485;28;20228;-66
2023/07/08 06:56:41;;;;;;;5.37;3.63;;;23.60;1.00;;;;;;8354053;28;20204;-67
2023/07/08 07:00:44;;;;;;;3.93;3.30;;;23.70;1.00;;;;;;8347806;28;20213;-66
2023/07/08 07:04:44;;;;;;;5.47;3.27;;;24.00;1.00;;;;;;8348129;28;20206;-69
2023/07/08 07:08:45;;;;;;;4.07;2.90;;;24.10;1.00;;;;;;8342647;28;20242;-68
2023/07/08 07:12:46;;;;;;;4.77;2.90;;;24.30;1.00;;;;;;8365058;28;20190;-66
2023/07/08 07:16:47;;;;;;;3.90;3.33;;;24.50;1.00;;;;;;8363271;28;20181;-67
2023/07/08 07:20:54;;;;;;;9.27;4.23;;;24.70;1.00;;;;;;8345367;28;20212;-67
2023/07/08 07:24:55;;;;;;;4.27;3.40;;;24.80;1.00;;;;;;8355867;28;20181;-68
2023/07/08 07:28:56;;;;;;;3.20;2.63;;;24.80;1.00;;;;;;8356900;28;20230;-67
2023/07/08 07:33:00;;;;;;;5.07;3.10;;;25.00;1.00;;;;;;8369390;28;20215;-68
2023/07/08 07:37:00;;;;;;;8.00;3.60;;;25.00;1.00;;;;;;8355390;28;20243;-66
2023/07/08 07:41:05;;;;;;;4.70;3.40;;;25.10;1.00;;;;;;8353633;28;20210;-67
2023/07/08 07:45:07;;;;;;;5.60;3.23;;;25.10;1.00;;;;;;8347092;28;20190;-67
2023/07/08 07:49:08;;;;;;;5.10;3.30;;;25.20;1.00;;;;;;8358194;28;20185;-69
2023/07/08 07:53:09;;;;;;;6.33;2.83;;;25.30;1.00;;;;;;8345452;28;20196;-66
2023/07/08 07:57:09;;;;;;;4.23;2.77;;;25.40;99.90;;;;;;8350695;28;20193;-68
2023/07/08 08:01:13;;;;;;;3.67;3.00;;;25.40;1.00;;;;;;8366045;28;20263;-69
2023/07/08 08:05:14;;;;;;;5.53;2.70;;;25.70;1.00;;;;;;8346141;28;20205;-69
2023/07/08 08:09:15;;;;;;;4.23;2.67;;;25.80;99.90;;;;;;8366896;28;20339;-70
2023/07/08 08:13:16;;;;;;;3.07;2.70;;;26.00;99.90;;;;;;8354554;28;20201;-65
2023/07/08 08:17:17;;;;;;;3.87;2.63;;;26.20;99.90;;;;;;8355660;28;20196;-65
2023/07/08 08:21:18;;;;;;;3.27;2.30;;;26.30;99.90;;;;;;8343521;28;20205;-67
2023/07/08 08:25:21;;;;;;;2.47;2.10;;;26.40;99.90;;;;;;8368234;28;20212;-66
2023/07/08 08:29:21;;;;;;;4.78;2.50;;;26.50;99.90;;;;;;8351434;28;20185;-66
2023/07/08 08:33:22;;;;;;;4.88;3.10;;;26.50;99.90;;;;;;8348684;28;20193;-69
2023/07/08 08:37:23;;;;;;;3.58;2.45;;;26.60;99.90;;;;;;8350024;28;20182;-68
2023/07/08 08:41:33;;;;;;;2.92;2.50;;;26.90;99.90;;;;;;8347416;28;20209;-65
2023/07/08 08:45:57;;;;;;;3.03;2.47;;;26.90;99.90;;;;;;8368200;28;20182;-69
2023/07/08 08:50:08;;;;;;;5.05;2.67;;;27.00;99.90;;;;;;8366351;28;20191;-72
2023/07/08 08:54:09;;;;;;;3.20;2.40;;;27.10;99.90;;;;;;8359171;28;20186;-68
2023/07/08 08:58:38;;;;;;;3.50;2.72;;;27.40;99.90;;;;;;8365619;28;20185;-66
2023/07/08 09:02:49;;;;;;;3.28;2.60;;;27.60;99.90;;;;;;8367995;28;20198;-67
2023/07/08 09:06:52;;;;;;;3.40;2.30;;;27.70;99.90;;;;;;8349726;28;20212;-67
2023/07/08 09:11:20;;;;;;;2.75;2.33;;;27.80;99.90;;;;;;8365095;28;20182;-69
2023/07/08 09:15:21;;;;;;;3.92;2.53;;;27.90;99.90;;;;;;8350046;28;20292;-68
2023/07/08 09:19:30;;;;;;;4.72;2.35;;;28.00;99.90;;;;;;8351931;28;20181;-66
2023/07/08 09:23:34;;;;;;;3.33;2.38;;;28.20;99.90;;;;;;8349759;28;20266;-68
2023/07/08 09:27:35;;;;;;;3.78;2.45;;;28.30;99.90;;;;;;8349786;28;20178;-66
2023/07/08 09:31:39;;;;;;;2.88;2.47;;;28.50;99.90;;;;;;8353984;28;20186;-68
2023/07/08 09:35:48;;;;;;;2.80;2.40;;;28.80;99.90;;;;;;8363799;28;20189;-68
2023/07/08 09:39:51;;;;;;;3.88;3.20;;;28.90;99.90;;;;;;8362751;28;20182;-68
2023/07/08 09:44:12;;;;;;;4.15;2.65;;;29.10;99.90;;;;;;8367498;28;20178;-69
2023/07/08 09:48:37;;;;;;;3.00;2.47;;;29.20;99.90;;;;;;8364443;28;20192;-69
2023/07/08 09:52:38;;;;;;;3.20;2.78;;;29.40;99.90;;;;;;8342505;28;20221;-66
2023/07/08 09:56:43;;;;;;;3.88;2.70;;;29.50;99.90;;;;;;8346894;28;20189;-68
2023/07/08 10:00:49;;;;;;;3.72;2.28;;;29.50;99.90;;;;;;8366149;28;20232;-67
2023/07/08 10:04:55;;;;;;;3.08;2.33;;;29.60;99.90;;;;;;8347325;28;20202;-67
2023/07/08 10:09:02;;;;;;;3.35;2.67;;;29.50;99.90;;;;;;8349427;28;20181;-67
2023/07/08 10:13:33;;;;;;;3.08;2.00;;;29.40;99.90;;;;;;8347614;28;20181;-70
2023/07/08 10:17:44;;;;;;;3.88;2.40;;;29.70;99.90;;;;;;8349874;28;20250;-67
2023/07/08 10:22:11;;;;;;;3.65;2.65;;;30.00;99.90;;;;;;8352514;28;20209;-68
2023/07/08 10:26:18;;;;;;;5.25;2.60;;;30.30;99.90;;;;;;8365838;28;20204;-69
2023/07/08 10:30:27;;;;;;;3.22;2.40;;;30.20;99.90;;;;;;8361797;28;20267;-69
2023/07/08 10:34:55;;;;;;;3.10;2.58;;;30.30;99.90;;;;;;8347170;28;20190;-68
2023/07/08 10:39:11;;;;;;;3.15;2.05;;;30.20;99.90;;;;;;8353366;28;20285;-70
2023/07/08 10:43:24;;;;;;;3.85;2.30;;;30.30;99.90;;;;;;8361842;28;20217;-69
2023/07/08 10:47:48;;;;;;;5.95;2.90;;;30.40;99.90;;;;;;8361331;28;20205;-69
2023/07/08 10:52:01;;;;;;;3.28;2.55;;;30.60;99.90;;;;;;8328970;28;20189;-68
2023/07/08 10:56:36;;;;;;;2.83;2.55;;;30.70;99.90;;;;;;8344003;28;20224;-68
2023/07/08 11:01:11;;;;;;;3.78;2.65;;;30.00;99.90;;;;;;8358668;28;20240;-68
2023/07/08 11:05:39;;;;;;;5.03;2.78;;;29.40;99.90;;;;;;8371742;28;20208;-69
2023/07/08 11:09:52;;;;;;;3.75;2.80;;;29.40;99.90;;;;;;8368402;28;20189;-66
2023/07/08 11:14:06;;;;;;;2.85;2.30;;;29.60;99.90;;;;;;8357871;28;20189;-68
2023/07/08 11:18:20;;;;;;;4.18;2.80;;;29.80;99.90;;;;;;8358528;28;20304;-69
2023/07/08 11:22:22;;;;;;;2.70;2.35;;;30.10;99.90;;;;;;8358318;28;20209;-68
2023/07/08 11:26:31;;;;;;;2.58;2.10;;;30.40;99.90;;;;;;8357454;28;20213;-68
2023/07/08 11:30:39;;;;;;;94.90;29.88;;;30.80;99.90;;;;;;8358104;28;20193;-74
2023/07/08 11:34:42;;;;;;;6.10;2.90;;;31.20;99.90;;;;;;8353198;28;20197;-68
2023/07/08 11:38:57;;;;;;;2.65;2.40;;;31.50;99.90;;;;;;8371251;28;20194;-68
2023/07/08 11:43:06;;;;;;;5.53;2.30;;;31.80;99.90;;;;;;8358210;28;20218;-68
2023/07/08 11:47:22;;;;;;;3.50;2.60;;;31.90;99.90;;;;;;8356364;28;20184;-68
2023/07/08 11:51:33;;;;;;;4.20;2.53;;;31.00;99.90;;;;;;8367118;28;20273;-71
2023/07/08 11:55:56;;;;;;;5.93;3.67;;;30.90;99.90;;;;;;8355799;28;20193;-69
2023/07/08 12:00:15;;;;;;;3.40;2.35;;;31.30;99.90;;;;;;8356019;28;20250;-67
2023/07/08 12:04:24;;;;;;;2.85;2.08;;;31.30;99.90;;;;;;8369381;28;20200;-68
2023/07/08 12:08:37;;;;;;;2.97;2.08;;;30.90;99.90;;;;;;8352051;28;20182;-71
2023/07/08 12:12:41;;;;;;;5.63;3.25;;;30.70;99.90;;;;;;8366000;28;20184;-67
2023/07/08 12:16:43;;;;;;;4.47;2.70;;;30.80;99.90;;;;;;8364806;28;20181;-67
2023/07/08 12:21:02;;;;;;;2.53;2.30;;;30.70;99.90;;;;;;8346240;28;20254;-67
2023/07/08 12:25:18;;;;;;;3.33;2.45;;;30.40;99.90;;;;;;8353470;28;20186;-68
2023/07/08 12:29:19;;;;;;;3.88;2.65;;;30.50;99.90;;;;;;8365690;28;20269;-67
2023/07/08 12:33:31;;;;;;;3.35;2.78;;;30.50;99.90;;;;;;8367016;28;20190;-68
2023/07/08 12:37:33;;;;;;;4.97;3.20;;;30.70;99.90;;;;;;8370806;28;20209;-69
2023/07/08 12:41:35;;;;;;;3.83;2.50;;;30.70;99.90;;;;;;8351084;28;20202;-68
2023/07/08 12:45:36;;;;;;;3.47;2.70;;;30.90;99.90;;;;;;8366741;28;20177;-69
2023/07/08 12:49:37;;;;;;;5.15;3.03;;;31.20;99.90;;;;;;8363428;28;20192;-68
2023/07/08 12:53:38;;;;;;;3.20;2.47;;;31.40;99.90;;;;;;8370384;28;20245;-67
2023/07/08 12:57:42;;;;;;;5.10;2.63;;;31.70;99.90;;;;;;8347220;28;20213;-68
2023/07/08 13:01:46;;;;;;;3.35;2.70;;;31.80;99.90;;;;;;8366341;28;20208;-69
2023/07/08 13:05:49;;;;;;;3.17;2.45;;;31.80;99.90;;;;;;8363616;28;20201;-67
2023/07/08 13:09:53;;;;;;;2.80;2.50;;;31.80;99.90;;;;;;8365200;28;20188;-68
2023/07/08 13:14:02;;;;;;;5.40;2.80;;;31.50;99.90;;;;;;8348655;28;20327;-68
2023/07/08 13:18:03;;;;;;;2.88;2.63;;;31.30;99.90;;;;;;8349986;28;20216;-66
2023/07/08 13:22:05;;;;;;;3.10;2.58;;;31.30;99.90;;;;;;8365186;28;20209;-68
2023/07/08 13:26:20;;;;;;;3.65;2.50;;;31.30;99.90;;;;;;8364039;28;20227;-66
2023/07/08 13:30:27;;;;;;;2.80;2.40;;;31.40;99.90;;;;;;8355499;28;20189;-68
2023/07/08 13:34:28;;;;;;;7.50;2.75;;;31.50;99.90;;;;;;8364855;28;20185;-67
2023/07/08 13:38:35;;;;;;;4.22;2.50;;;31.30;99.90;;;;;;8347848;28;20295;-67
2023/07/08 13:42:49;;;;;;;3.13;2.58;;;30.80;99.90;;;;;;8365478;28;20208;-68
2023/07/08 13:46:50;;;;;;;2.70;2.15;;;31.10;99.90;;;;;;8363121;28;20189;-69
2023/07/08 13:51:01;;;;;;;3.03;2.67;;;31.50;99.90;;;;;;8344056;28;20185;-67
2023/07/08 13:55:10;;;;;;;3.85;2.63;;;31.70;99.90;;;;;;8351901;28;20287;-69
2023/07/08 13:59:18;;;;;;;6.72;2.72;;;31.60;99.90;;;;;;8359412;28;20312;-68
2023/07/08 14:03:20;;;;;;;3.30;2.70;;;31.60;99.90;;;;;;8361155;28;20206;-68
2023/07/08 14:07:24;;;;;;;3.92;2.50;;;31.60;99.90;;;;;;8346012;28;20214;-68
2023/07/08 14:11:25;;;;;;;4.13;2.60;;;31.60;99.90;;;;;;8350715;28;20192;-68
2023/07/08 14:15:26;;;;;;;3.47;2.55;;;31.80;99.90;;;;;;8349911;28;20185;-68
2023/07/08 14:19:31;;;;;;;3.00;2.40;;;32.10;99.90;;;;;;8345490;28;20271;-68
2023/07/08 14:23:32;;;;;;;2.95;2.10;;;32.40;99.90;;;;;;8343341;28;20209;-69
2023/07/08 14:27:33;;;;;;;3.88;2.45;;;32.40;99.90;;;;;;8342912;28;20216;-67
2023/07/08 14:32:12;;;;;;;2.47;2.25;;;32.50;99.90;;;;;;8346234;28;20189;-67
2023/07/08 14:36:14;;;;;;;3.20;2.47;;;32.60;99.90;;;;;;8358845;28;20182;-68
2023/07/08 14:40:36;;;;;;;4.10;2.90;;;32.60;99.90;;;;;;8360514;28;20201;-67
2023/07/08 14:44:39;;;;;;;4.97;2.25;;;32.40;99.90;;;;;;8367526;28;20264;-66
2023/07/08 14:48:40;;;;;;;2.35;2.15;;;32.40;99.90;;;;;;8358694;28;20196;-68
2023/07/08 14:52:41;;;;;;;4.65;3.60;;;32.70;99.90;;;;;;8347511;28;20193;-66
2023/07/08 14:56:42;;;;;;;3.67;2.70;;;32.70;99.90;;;;;;8340709;28;20276;-65
2023/07/08 15:00:43;;;;;;;3.80;2.38;;;33.10;99.90;;;;;;8341978;28;20217;-69
2023/07/08 15:04:44;;;;;;;3.60;2.65;;;33.00;99.90;;;;;;8344593;28;20202;-68
2023/07/08 15:08:46;;;;;;;4.03;2.70;;;33.00;99.90;;;;;;8346877;28;20193;-67
2023/07/08 15:12:48;;;;;;;2.90;2.47;;;32.70;99.90;;;;;;8348207;28;20208;-68
2023/07/08 15:16:50;;;;;;;3.13;2.72;;;32.40;99.90;;;;;;8346889;28;20193;-67
2023/07/08 15:20:51;;;;;;;5.78;2.58;;;32.20;99.90;;;;;;8339671;28;20209;-68
2023/07/08 15:24:53;;;;;;;4.55;2.97;;;32.10;99.90;;;;;;8360743;28;20181;-67
2023/07/08 15:28:54;;;;;;;5.55;3.20;;;32.00;99.90;;;;;;8345756;28;20205;-68
2023/07/08 15:32:56;;;;;;;4.32;2.70;;;31.90;99.90;;;;;;8357954;28;20181;-68
2023/07/08 15:36:57;;;;;;;3.85;2.63;;;32.00;99.90;;;;;;8344394;28;20239;-67
2023/07/08 15:40:58;;;;;;;6.95;3.28;;;32.10;99.90;;;;;;8344033;28;20275;-66
2023/07/08 15:45:00;;;;;;;4.15;3.10;;;32.20;99.90;;;;;;8353572;28;20260;-66
2023/07/08 15:49:09;;;;;;;4.80;3.00;;;32.30;99.90;;;;;;8353568;28;20210;-68
2023/07/08 15:53:15;;;;;;;3.25;2.45;;;32.40;99.90;;;;;;8351297;28;20296;-67
2023/07/08 15:57:16;;;;;;;4.55;2.67;;;32.60;99.90;;;;;;8350535;28;20189;-67
2023/07/08 16:01:22;;;;;;;3.60;2.65;;;32.70;99.90;;;;;;8354964;28;20216;-67
2023/07/08 16:05:24;;;;;;;4.20;2.78;;;32.80;99.90;;;;;;8354584;28;20288;-69
2023/07/08 16:09:25;;;;;;;2.92;2.65;;;32.70;99.90;;;;;;8348743;28;20177;-68
2023/07/08 16:13:29;;;;;;;3.38;2.70;;;32.40;99.90;;;;;;8346512;28;20213;-70
2023/07/08 16:17:35;;;;;;;3.70;2.33;;;32.20;99.90;;;;;;8353434;28;20182;-69
2023/07/08 16:21:36;;;;;;;2.47;2.28;;;32.10;99.90;;;;;;8345141;28;20312;-68
2023/07/08 16:25:41;;;;;;;7.32;3.75;;;32.10;99.90;;;;;;8350402;28;20192;-67
2023/07/08 16:29:42;;;;;;;5.97;4.15;;;31.90;99.90;;;;;;8360627;28;20205;-66
2023/07/08 16:33:45;;;;;;;5.45;3.60;;;31.60;99.90;;;;;;8350338;28;20200;-67
2023/07/08 16:37:52;;;;;;;3.88;3.20;;;31.30;99.90;;;;;;8363035;28;20188;-65
2023/07/08 16:41:53;;;;;;;3.80;3.00;;;31.20;99.90;;;;;;8350836;28;20214;-67
2023/07/08 16:45:55;;;;;;;2.92;2.40;;;31.00;99.90;;;;;;8345302;28;20194;-67
2023/07/08 16:49:56;;;;;;;4.47;3.08;;;31.00;99.90;;;;;;8354075;28;20186;-67
2023/07/08 16:54:08;;;;;;;4.78;2.83;;;31.00;99.90;;;;;;8361256;28;20231;-67
2023/07/08 16:58:11;;;;;;;3.72;2.92;;;30.80;99.90;;;;;;8362867;28;20228;-67
2023/07/08 17:02:19;;;;;;;4.53;3.65;;;30.60;99.90;;;;;;8344515;28;20319;-70
2023/07/08 17:06:21;;;;;;;3.20;2.90;;;30.50;99.90;;;;;;8344688;28;20202;-70
2023/07/08 17:10:26;;;;;;;6.25;3.83;;;30.40;99.90;;;;;;8345139;28;20189;-69
2023/07/08 17:14:27;;;;;;;4.43;3.05;;;30.30;99.90;;;;;;8364452;28;20208;-68
2023/07/08 17:18:28;;;;;;;4.00;3.30;;;30.40;99.90;;;;;;8365308;28;20185;-69
2023/07/08 17:22:29;;;;;;;3.47;2.67;;;30.60;99.90;;;;;;8360230;28;20301;-70
2023/07/08 17:26:30;;;;;;;3.90;3.13;;;31.20;99.90;;;;;;8361761;28;20194;-68
2023/07/08 17:30:32;;;;;;;5.13;2.50;;;31.90;99.90;;;;;;8350270;28;20213;-68
2023/07/08 17:34:35;;;;;;;3.03;2.38;;;32.70;99.90;;;;;;8341855;28;20244;-68
2023/07/08 17:38:48;;;;;;;2.97;2.70;;;33.50;99.90;;;;;;8361334;28;20199;-68
2023/07/08 17:42:52;;;;;;;2.60;2.40;;;34.20;99.90;;;;;;8346372;28;20259;-68
2023/07/08 17:46:55;;;;;;;3.08;2.30;;;34.80;99.90;;;;;;8360894;28;20177;-69
2023/07/08 17:50:55;;;;;;;3.00;2.60;;;35.20;99.90;;;;;;8344726;28;20199;-68
2023/07/08 17:54:56;;;;;;;3.30;2.60;;;35.50;99.90;;;;;;8343346;28;20177;-67
2023/07/08 17:58:57;;;;;;;4.45;3.63;;;35.60;99.90;;;;;;8343372;28;20227;-67
2023/07/08 18:02:59;;;;;;;3.53;3.22;;;35.40;99.90;;;;;;8352283;28;20216;-67
2023/07/08 18:07:03;;;;;;;4.90;3.42;;;34.20;99.90;;;;;;8343946;28;20182;-68
2023/07/08 18:11:14;;;;;;;6.57;3.15;;;33.80;99.90;;;;;;8361401;28;20265;-68
2023/07/08 18:15:30;;;;;;;13.15;3.20;;;33.70;99.90;;;;;;8353524;28;20209;-66
2023/07/08 18:19:31;;;;;;;4.90;2.90;;;33.60;99.90;;;;;;8348590;28;20189;-67
2023/07/08 18:23:34;;;;;;;7.13;3.40;;;33.40;99.90;;;;;;8344982;28;20232;-67
2023/07/08 18:27:35;;;;;;;5.13;2.90;;;32.50;99.90;;;;;;8340943;28;20181;-67
2023/07/08 18:31:36;;;;;;;3.40;2.83;;;31.10;99.90;;;;;;8358882;28;20180;-68
2023/07/08 18:35:38;;;;;;;4.18;2.70;;;30.20;99.90;;;;;;8362241;28;20191;-68
2023/07/08 18:39:42;;;;;;;3.42;2.53;;;29.80;99.90;;;;;;8342285;28;20268;-67
2023/07/08 18:43:43;;;;;;;3.50;2.33;;;29.50;99.90;;;;;;8357413;28;20321;-68
2023/07/08 18:47:44;;;;;;;3.33;2.90;;;28.90;99.90;;;;;;8360566;28;20192;-67
2023/07/08 18:51:46;;;;;;;3.40;2.80;;;28.40;99.90;;;;;;8361884;28;20292;-68
2023/07/08 18:55:48;;;;;;;4.05;2.88;;;28.00;99.90;;;;;;8345096;28;20185;-67
2023/07/08 18:59:49;;;;;;;3.38;3.05;;;27.50;99.90;;;;;;8343875;28;20212;-67
2023/07/08 19:03:51;;;;;;;3.35;3.00;;;26.80;99.90;;;;;;8359976;28;20208;-67
2023/07/08 19:07:53;;;;;;;2.90;2.70;;;26.10;99.90;;;;;;8342438;28;20269;-67
2023/07/08 19:11:54;;;;;;;4.47;3.53;;;25.50;99.90;;;;;;8355895;28;20233;-67
2023/07/08 19:15:55;;;;;;;4.67;3.17;;;24.90;99.90;;;;;;8350535;28;20182;-66
2023/07/08 19:19:56;;;;;;;3.83;3.30;;;24.40;99.90;;;;;;8343980;28;20185;-66
2023/07/08 19:23:58;;;;;;;3.73;3.30;;;23.90;99.90;;;;;;8349959;28;20220;-67
2023/07/08 19:27:59;;;;;;;4.60;3.40;;;23.50;99.90;;;;;;8366225;28;20173;-67
2023/07/08 19:32:01;;;;;;;4.13;2.97;;;23.20;1.00;;;;;;8346981;28;20211;-66
2023/07/08 19:36:02;;;;;;;4.00;3.50;;;22.80;1.00;;;;;;8355310;28;20240;-65
2023/07/08 19:40:07;;;;;;;3.70;3.40;;;22.50;1.00;;;;;;8354026;28;20206;-64
2023/07/08 19:44:12;;;;;;;4.80;3.07;;;22.30;1.00;;;;;;8356401;28;20201;-64
2023/07/08 19:48:13;;;;;;;4.00;3.60;;;22.00;1.00;;;;;;8352138;28;20185;-64
2023/07/08 19:52:14;;;;;;;4.20;3.80;;;21.80;1.00;;;;;;8363208;28;20209;-65
2023/07/08 19:56:21;;;;;;;7.03;4.03;;;21.60;1.00;;;;;;8351309;28;20256;-66
2023/07/08 20:00:29;;;;;;;4.10;3.70;;;21.40;1.00;;;;;;8352694;28;20197;-63
2023/07/08 20:04:30;;;;;;;4.40;4.00;;;21.20;1.00;;;;;;8348176;28;20213;-66
2023/07/08 20:08:32;;;;;;;5.83;4.40;;;21.00;1.00;;;;;;8352185;28;20178;-64
2023/07/08 20:12:33;;;;;;;4.87;4.40;;;20.80;1.00;;;;;;8365102;28;20260;-64
2023/07/08 20:16:36;;;;;;;5.30;3.80;;;20.60;1.00;;;;;;8347785;28;20213;-67
2023/07/08 20:20:37;;;;;;;4.70;4.20;;;20.40;1.00;;;;;;8343637;28;20205;-64
2023/07/08 20:24:38;;;;;;;4.50;4.10;;;20.20;1.00;;;;;;8348659;28;20251;-63
2023/07/08 20:28:39;;;;;;;4.33;3.93;;;19.90;1.00;;;;;;8349016;28;20209;-65
2023/07/08 20:32:40;;;;;;;4.40;4.00;;;19.80;1.00;;;;;;8347114;28;20185;-63
2023/07/08 20:36:41;;;;;;;4.80;3.70;;;19.60;1.00;;;;;;8356064;28;20192;-64
2023/07/08 20:40:42;;;;;;;4.40;3.97;;;19.50;1.00;;;;;;8361012;28;20204;-63
2023/07/08 20:44:43;;;;;;;5.07;3.60;;;19.40;1.00;;;;;;8353286;28;20186;-63
2023/07/08 20:48:44;;;;;;;3.97;3.57;;;19.30;1.00;;;;;;8347558;28;20305;-64
2023/07/08 20:52:46;;;;;;;5.23;3.90;;;19.10;1.00;;;;;;8347661;28;20196;-63
2023/07/08 20:56:47;;;;;;;4.20;3.80;;;19.00;1.00;;;;;;8347811;28;20320;-63
2023/07/08 21:00:48;;;;;;;4.30;3.90;;;18.80;1.00;;;;;;8362828;28;20213;-63
2023/07/08 21:04:50;;;;;;;4.57;4.17;;;18.70;1.00;;;;;;8364376;28;20247;-64
2023/07/08 21:08:52;;;;;;;5.13;4.70;;;18.60;1.00;;;;;;8363341;28;20185;-64
2023/07/08 21:12:55;;;;;;;4.40;4.00;;;18.50;1.00;;;;;;8345700;28;20378;-64
2023/07/08 21:16:56;;;;;;;4.27;3.43;;;18.40;1.00;;;;;;8348444;28;20192;-64